createdAt,value
2022-10-18T00:00:41.493Z,24.25
2022-10-18T00:03:07.815Z,21.65
2022-10-18T00:05:34.135Z,23.33
2022-10-18T00:08:00.472Z,22.00
2022-10-18T00:10:27.099Z,23.85
2022-10-18T00:12:53.458Z,22.35
2022-10-18T00:15:20.091Z,20.23
2022-10-18T00:17:46.412Z,23.08
2022-10-18T00:20:12.667Z,20.10
2022-10-18T00:22:39.596Z,23.20
2022-10-18T00:25:06.376Z,20.77
2022-10-18T00:27:32.879Z,21.48
2022-10-18T00:29:59.495Z,20.70
2022-10-18T00:32:26.338Z,19.92
2022-10-18T00:34:52.813Z,23.25
2022-10-18T00:37:19.113Z,20.02
2022-10-18T00:39:45.570Z,22.95
2022-10-18T00:42:16.086Z,20.98
2022-10-18T00:44:42.393Z,22.63
2022-10-18T00:47:09.847Z,22.58
2022-10-18T00:49:47.561Z,23.15
2022-10-18T00:52:18.082Z,25.05
2022-10-18T00:54:45.033Z,22.38
2022-10-18T00:57:11.859Z,25.35
2022-10-18T00:59:38.304Z,18.88
2022-10-18T01:02:05.854Z,21.73
2022-10-18T01:04:32.180Z,22.58
2022-10-18T01:07:04.556Z,21.92
2022-10-18T01:09:33.732Z,22.05
2022-10-18T01:12:09.422Z,20.23
2022-10-18T01:15:02.303Z,19.95
2022-10-18T01:17:28.608Z,19.83
2022-10-18T01:20:16.830Z,18.30
2022-10-18T01:23:09.508Z,17.02
2022-10-18T01:25:51.138Z,19.92
2022-10-18T01:28:27.416Z,15.77
2022-10-18T01:30:59.377Z,19.75
2022-10-18T01:33:28.391Z,17.63
2022-10-18T01:36:05.781Z,17.27
2022-10-18T01:38:33.086Z,16.10
2022-10-18T01:41:00.439Z,22.73
2022-10-18T01:43:28.409Z,18.13
2022-10-18T01:45:55.711Z,15.45
2022-10-18T01:48:22.799Z,16.45
2022-10-18T01:50:49.063Z,14.02
2022-10-18T01:53:22.666Z,23.60
2022-10-18T01:55:52.843Z,17.60
2022-10-18T01:58:21.640Z,15.23
2022-10-18T02:00:51.054Z,14.65
2022-10-18T02:03:21.916Z,12.73
2022-10-18T02:06:14.549Z,17.80
2022-10-18T02:08:44.647Z,12.60
2022-10-18T02:11:12.850Z,15.13
2022-10-18T02:13:45.295Z,13.98
2022-10-18T02:16:14.354Z,19.20
2022-10-18T02:18:42.028Z,14.85
2022-10-18T02:21:10.185Z,14.48
2022-10-18T02:23:36.864Z,13.68
2022-10-18T02:26:03.613Z,14.85
2022-10-18T02:28:30.059Z,18.10
2022-10-18T02:31:15.297Z,14.43
2022-10-18T02:33:53.968Z,12.40
2022-10-18T02:36:42.280Z,12.45
2022-10-18T02:39:14.325Z,14.98
2022-10-18T02:41:40.699Z,13.23
2022-10-18T02:44:07.073Z,13.82
2022-10-18T02:46:34.264Z,12.05
2022-10-18T02:49:00.571Z,15.07
2022-10-18T02:51:27.277Z,14.98
2022-10-18T02:53:53.539Z,13.88
2022-10-18T02:56:20.076Z,13.30
2022-10-18T02:58:46.432Z,15.63
2022-10-18T03:01:12.781Z,12.50
2022-10-18T03:03:39.103Z,12.48
2022-10-18T03:06:05.504Z,12.10
2022-10-18T03:08:31.835Z,16.83
2022-10-18T03:10:58.361Z,12.02
2022-10-18T03:13:24.684Z,11.90
2022-10-18T03:15:51.260Z,14.48
2022-10-18T03:18:17.540Z,14.98
2022-10-18T03:20:43.802Z,12.88
2022-10-18T03:23:10.077Z,12.48
2022-10-18T03:25:36.346Z,10.65
2022-10-18T03:28:02.686Z,15.20
2022-10-18T03:30:29.004Z,13.75
2022-10-18T03:32:55.351Z,12.93
2022-10-18T03:35:22.277Z,22.85
2022-10-18T03:37:48.761Z,13.07
2022-10-18T03:40:15.077Z,14.82
2022-10-18T03:42:41.323Z,13.20
2022-10-18T03:45:07.760Z,17.13
2022-10-18T03:47:34.013Z,18.50
2022-10-18T03:50:00.268Z,12.35
2022-10-18T03:52:26.565Z,14.43
2022-10-18T03:54:52.809Z,12.25
2022-10-18T03:57:19.136Z,11.98
2022-10-18T03:59:45.371Z,12.90
2022-10-18T04:02:11.618Z,16.27
2022-10-18T04:04:37.879Z,18.58
2022-10-18T04:07:04.161Z,12.95
2022-10-18T04:09:30.438Z,16.75
2022-10-18T04:11:56.687Z,13.27
2022-10-18T04:14:22.992Z,13.80
2022-10-18T04:16:49.375Z,13.95
2022-10-18T04:19:15.767Z,12.75
2022-10-18T04:21:42.039Z,15.88
2022-10-18T04:24:08.393Z,13.63
2022-10-18T04:26:34.675Z,12.15
2022-10-18T04:29:01.124Z,15.68
2022-10-18T04:31:27.457Z,14.95
2022-10-18T04:33:53.823Z,15.65
2022-10-18T04:36:20.260Z,14.70
2022-10-18T04:38:46.537Z,15.90
2022-10-18T04:41:12.874Z,12.98
2022-10-18T04:43:39.151Z,10.73
2022-10-18T04:46:05.477Z,15.35
2022-10-18T04:48:31.759Z,12.73
2022-10-18T04:50:58.416Z,15.27
2022-10-18T04:53:24.696Z,13.93
2022-10-18T04:55:51.453Z,15.68
2022-10-18T04:58:17.871Z,22.20
2022-10-18T05:00:44.156Z,17.38
2022-10-18T05:03:11.264Z,21.85
2022-10-18T05:05:49.737Z,49.13
2022-10-18T05:10:49.918Z,46.92
2022-10-18T05:13:16.703Z,54.95
2022-10-18T05:15:42.972Z,59.13
2022-10-18T05:18:09.380Z,102.93
2022-10-18T05:20:35.631Z,41.58
2022-10-18T05:23:01.980Z,69.30
2022-10-18T05:25:28.557Z,71.60
2022-10-18T05:27:54.808Z,70.75
2022-10-18T05:30:21.627Z,64.95
2022-10-18T05:32:48.029Z,46.60
2022-10-18T05:35:14.440Z,39.80
2022-10-18T05:37:40.718Z,42.97
2022-10-18T05:40:07.459Z,49.58
2022-10-18T05:42:34.024Z,41.53
2022-10-18T05:45:00.412Z,49.17
2022-10-18T05:47:26.661Z,42.03
2022-10-18T05:49:52.931Z,32.03
2022-10-18T05:52:19.286Z,75.43
2022-10-18T05:54:45.582Z,43.10
2022-10-18T05:57:11.921Z,55.58
2022-10-18T05:59:38.239Z,40.00
2022-10-18T06:02:04.617Z,76.22
2022-10-18T06:04:30.882Z,70.82
2022-10-18T06:06:58.478Z,115.60
2022-10-18T06:09:24.805Z,42.03
2022-10-18T06:11:51.313Z,104.80
2022-10-18T06:14:17.570Z,64.47
2022-10-18T06:16:43.808Z,63.45
2022-10-18T06:19:10.120Z,76.32
2022-10-18T06:21:36.379Z,43.35
2022-10-18T06:24:02.679Z,43.33
2022-10-18T06:26:29.040Z,59.28
2022-10-18T06:28:55.593Z,55.78
2022-10-18T06:31:21.918Z,66.78
2022-10-18T06:33:48.359Z,43.92
2022-10-18T06:36:16.591Z,41.40
2022-10-18T06:38:42.933Z,51.42
2022-10-18T06:41:09.800Z,51.83
2022-10-18T06:43:36.402Z,48.50
2022-10-18T06:46:04.962Z,26.50
2022-10-18T06:48:31.751Z,30.05
2022-10-18T06:50:59.086Z,34.20
2022-10-18T06:53:26.534Z,22.27
2022-10-18T06:55:53.123Z,13.32
2022-10-18T06:58:19.444Z,29.25
2022-10-18T07:00:46.885Z,21.65
2022-10-18T07:03:13.246Z,29.58
2022-10-18T07:05:39.601Z,27.25
2022-10-18T07:08:05.852Z,28.00
2022-10-18T07:10:32.135Z,28.90
2022-10-18T07:13:13.659Z,21.67
2022-10-18T07:15:44.922Z,15.95
2022-10-18T07:18:11.298Z,23.83
2022-10-18T07:20:37.612Z,36.33
2022-10-18T07:23:05.534Z,24.58
2022-10-18T07:25:31.807Z,13.95
2022-10-18T07:27:58.538Z,18.75
2022-10-18T07:30:24.784Z,26.73
2022-10-18T07:32:51.810Z,24.00
2022-10-18T07:35:18.177Z,23.40
2022-10-18T07:37:44.446Z,18.73
2022-10-18T07:40:11.916Z,25.08
2022-10-18T07:42:38.212Z,19.73
2022-10-18T07:45:04.691Z,20.55
2022-10-18T07:47:32.847Z,23.20
2022-10-18T07:50:01.450Z,16.85
2022-10-18T07:52:27.818Z,14.93
2022-10-18T07:54:54.125Z,16.35
2022-10-18T07:57:20.463Z,15.18
2022-10-18T07:59:48.111Z,22.20
2022-10-18T08:02:14.416Z,21.17
2022-10-18T08:04:41.584Z,17.27
2022-10-18T08:07:07.947Z,17.98
2022-10-18T08:09:34.209Z,17.48
2022-10-18T08:12:00.487Z,15.70
2022-10-18T08:14:26.819Z,18.73
2022-10-18T08:16:53.362Z,16.77
2022-10-18T08:19:19.675Z,13.70
2022-10-18T08:21:45.957Z,14.32
2022-10-18T08:24:12.454Z,13.95
2022-10-18T08:26:38.843Z,20.70
2022-10-18T08:29:22.978Z,15.35
2022-10-18T08:31:51.366Z,12.07
2022-10-18T08:34:19.820Z,13.50
2022-10-18T08:36:51.338Z,12.23
2022-10-18T08:39:17.578Z,16.05
2022-10-18T08:41:55.978Z,14.35
2022-10-18T08:44:30.314Z,17.30
2022-10-18T08:47:05.068Z,11.35
2022-10-18T08:49:35.992Z,15.63
2022-10-18T08:52:02.987Z,18.45
2022-10-18T08:54:39.517Z,10.18
2022-10-18T08:57:12.457Z,13.05
2022-10-18T08:59:39.679Z,17.00
2022-10-18T09:02:24.258Z,14.20
2022-10-18T09:04:50.526Z,13.65
2022-10-18T09:07:23.001Z,12.18
2022-10-18T09:10:15.348Z,9.77
2022-10-18T09:12:53.296Z,10.40
2022-10-18T09:15:38.422Z,10.23
2022-10-18T09:18:07.752Z,9.90
2022-10-18T09:20:50.318Z,9.77
2022-10-18T09:23:20.374Z,12.18
2022-10-18T09:25:48.004Z,13.18
2022-10-18T09:28:17.327Z,7.82
2022-10-18T09:30:43.614Z,13.82
2022-10-18T09:33:19.822Z,14.32
2022-10-18T09:35:52.294Z,14.48
2022-10-18T09:38:21.576Z,16.88
2022-10-18T09:40:53.270Z,7.35
2022-10-18T09:43:22.861Z,5.22
2022-10-18T09:45:50.526Z,10.88
2022-10-18T09:48:19.825Z,12.68
2022-10-18T09:50:58.852Z,7.75
2022-10-18T09:53:25.101Z,8.93
2022-10-18T09:55:56.833Z,9.65
2022-10-18T09:58:24.178Z,8.60
2022-10-18T10:00:52.639Z,9.35
2022-10-18T10:03:19.214Z,11.23
2022-10-18T10:05:45.552Z,5.07
2022-10-18T10:08:12.244Z,6.75
2022-10-18T10:10:40.297Z,5.22
2022-10-18T10:13:15.976Z,7.00
2022-10-18T10:16:01.466Z,6.93
2022-10-18T10:18:31.055Z,5.22
2022-10-18T10:21:00.167Z,6.75
2022-10-18T10:23:28.685Z,8.07
2022-10-18T10:25:56.623Z,5.80
2022-10-18T10:28:23.875Z,8.98
2022-10-18T10:30:50.522Z,1.17
2022-10-18T10:33:36.948Z,8.80
2022-10-18T10:36:15.584Z,4.90
2022-10-18T10:38:41.870Z,3.85
2022-10-18T10:41:18.278Z,7.13
2022-10-18T10:43:45.604Z,3.95
2022-10-18T10:46:13.070Z,5.60
2022-10-18T10:48:41.785Z,6.70
2022-10-18T10:51:10.322Z,2.97
2022-10-18T10:53:45.757Z,4.80
2022-10-18T10:58:42.093Z,2.47
2022-10-18T11:01:20.528Z,5.00
2022-10-18T11:03:48.234Z,3.20
2022-10-18T11:06:33.444Z,8.93
2022-10-18T11:09:01.958Z,6.38
2022-10-18T11:11:32.040Z,3.75
2022-10-18T11:14:32.455Z,6.97
2022-10-18T11:16:49.799Z,2.90
2022-10-18T11:19:32.474Z,4.47
2022-10-18T11:21:59.628Z,9.35
2022-10-18T11:24:25.984Z,2.88
2022-10-18T11:27:12.477Z,5.78
2022-10-18T11:29:51.256Z,5.63
2022-10-18T11:32:40.687Z,6.28
2022-10-18T11:35:26.645Z,13.55
2022-10-18T11:38:22.266Z,6.75
2022-10-18T11:41:07.466Z,5.72
2022-10-18T11:43:57.063Z,5.38
2022-10-18T11:46:27.864Z,4.07
2022-10-18T11:49:05.689Z,5.30
2022-10-18T11:51:34.325Z,6.40
2022-10-18T11:54:25.268Z,3.67
2022-10-18T11:57:14.538Z,5.20
2022-10-18T11:59:51.565Z,4.55
2022-10-18T12:02:36.642Z,10.25
2022-10-18T12:05:22.671Z,5.38
2022-10-18T12:08:02.603Z,2.55
2022-10-18T12:10:52.753Z,3.65
2022-10-18T12:13:22.969Z,7.32
2022-10-18T12:15:50.620Z,1.58
2022-10-18T12:18:19.032Z,4.68
2022-10-18T12:20:49.316Z,4.15
2022-10-18T12:23:21.822Z,7.57
2022-10-18T12:26:00.946Z,4.80
2022-10-18T12:28:33.141Z,2.53
2022-10-18T12:31:14.585Z,5.40
2022-10-18T12:33:42.724Z,2.40
2022-10-18T12:36:15.205Z,7.07
2022-10-18T12:38:43.682Z,9.27
2022-10-18T12:41:19.237Z,3.00
2022-10-18T12:43:50.839Z,5.18
2022-10-18T12:46:17.102Z,3.92
2022-10-18T12:48:45.707Z,5.85
2022-10-18T12:51:16.476Z,5.45
2022-10-18T12:53:45.072Z,4.65
2022-10-18T12:56:25.200Z,4.18
2022-10-18T12:58:51.791Z,3.63
2022-10-18T13:01:18.163Z,4.65
2022-10-18T13:03:52.864Z,5.78
2022-10-18T13:06:19.151Z,3.47
2022-10-18T13:08:46.051Z,6.32
2022-10-18T13:11:12.327Z,5.15
2022-10-18T13:13:57.000Z,5.72
2022-10-18T13:16:23.301Z,9.68
2022-10-18T13:18:49.582Z,10.90
2022-10-18T13:21:21.998Z,7.30
2022-10-18T13:24:02.465Z,5.05
2022-10-18T13:26:58.129Z,6.45
2022-10-18T13:29:35.469Z,6.85
2022-10-18T13:32:01.736Z,3.13
2022-10-18T13:34:30.974Z,1.77
2022-10-18T13:37:03.612Z,6.35
2022-10-18T13:39:30.276Z,1.35
2022-10-18T13:41:57.824Z,1.30
2022-10-18T13:44:24.374Z,2.70
2022-10-18T13:46:51.576Z,6.25
2022-10-18T13:49:38.095Z,3.88
2022-10-18T13:52:07.468Z,2.95
2022-10-18T13:54:52.610Z,1.73
2022-10-18T13:57:37.921Z,4.13
2022-10-18T14:00:15.636Z,4.88
2022-10-18T14:02:51.493Z,2.90
2022-10-18T14:05:29.061Z,6.95
2022-10-18T14:08:01.438Z,3.38
2022-10-18T14:11:00.928Z,11.38
2022-10-18T14:13:36.498Z,9.18
2022-10-18T14:16:10.294Z,5.30
2022-10-18T14:18:37.773Z,4.80
2022-10-18T14:21:13.725Z,4.25
2022-10-18T14:23:44.428Z,2.47
2022-10-18T14:26:15.310Z,5.38
2022-10-18T14:28:59.208Z,5.53
2022-10-18T14:31:26.716Z,5.93
2022-10-18T14:33:57.576Z,5.90
2022-10-18T14:36:26.678Z,4.82
2022-10-18T14:39:00.313Z,8.70
2022-10-18T14:41:33.452Z,6.20
2022-10-18T14:44:14.776Z,4.40
2022-10-18T14:46:51.515Z,7.22
2022-10-18T14:49:19.703Z,7.75
2022-10-18T14:51:48.546Z,9.45
2022-10-18T14:54:16.309Z,7.05
2022-10-18T14:56:43.029Z,3.35
2022-10-18T14:59:26.743Z,7.00
2022-10-18T15:02:05.136Z,4.50
2022-10-18T15:04:34.639Z,5.82
2022-10-18T15:07:05.459Z,5.53
2022-10-18T15:09:32.811Z,5.88
2022-10-18T15:12:00.621Z,5.28
2022-10-18T15:14:27.847Z,6.20
2022-10-18T15:16:58.372Z,8.07
2022-10-18T15:19:27.738Z,3.92
2022-10-18T15:25:26.751Z,4.50
2022-10-18T15:27:56.736Z,1.38
2022-10-18T15:30:36.531Z,2.17
2022-10-18T15:33:04.216Z,4.63
2022-10-18T15:35:32.068Z,7.03
2022-10-18T15:38:12.625Z,7.18
2022-10-18T15:40:39.474Z,7.43
2022-10-18T15:43:25.872Z,6.50
2022-10-18T15:45:52.243Z,7.80
2022-10-18T15:48:22.034Z,11.35
2022-10-18T15:50:50.560Z,7.38
2022-10-18T15:53:23.011Z,7.93
2022-10-18T15:56:00.685Z,4.65
2022-10-18T15:58:28.035Z,8.52
2022-10-18T16:00:57.941Z,7.85
2022-10-18T16:03:24.852Z,7.75
2022-10-18T16:05:53.063Z,7.55
2022-10-18T16:08:21.139Z,6.10
2022-10-18T16:10:47.460Z,7.68
2022-10-18T16:13:13.760Z,8.23
2022-10-18T16:15:40.042Z,10.23
2022-10-18T16:18:06.690Z,8.88
2022-10-18T16:20:33.122Z,5.05
2022-10-18T16:22:59.423Z,6.43
2022-10-18T16:25:25.767Z,9.40
2022-10-18T16:27:52.013Z,7.53
2022-10-18T16:30:19.848Z,14.32
2022-10-18T16:32:46.591Z,11.63
2022-10-18T16:35:13.404Z,5.95
2022-10-18T16:37:39.963Z,5.53
2022-10-18T16:40:25.251Z,10.70
2022-10-18T16:42:51.595Z,10.27
2022-10-18T16:45:18.142Z,8.35
2022-10-18T16:47:45.079Z,9.50
2022-10-18T16:50:16.045Z,7.97
2022-10-18T16:52:42.493Z,7.70
2022-10-18T16:55:16.081Z,12.77
2022-10-18T16:57:43.208Z,6.90
2022-10-18T17:00:15.834Z,3.55
2022-10-18T17:02:42.089Z,5.57
2022-10-18T17:05:08.493Z,8.15
2022-10-18T17:07:34.883Z,6.55
2022-10-18T17:10:01.198Z,10.68
2022-10-18T17:12:27.863Z,6.90
2022-10-18T17:14:54.128Z,8.95
2022-10-18T17:17:21.057Z,9.02
2022-10-18T17:19:47.274Z,6.88
2022-10-18T17:22:13.672Z,15.13
2022-10-18T17:24:40.000Z,5.43
2022-10-18T17:27:06.348Z,12.80
2022-10-18T17:29:32.637Z,9.65
2022-10-18T17:31:59.035Z,12.43
2022-10-18T17:34:25.307Z,6.28
2022-10-18T17:36:51.566Z,9.90
2022-10-18T17:39:17.972Z,6.63
2022-10-18T17:41:44.298Z,4.93
2022-10-18T17:44:10.567Z,9.65
2022-10-18T17:46:36.863Z,12.63
2022-10-18T17:49:03.216Z,11.73
2022-10-18T17:51:29.547Z,13.65
2022-10-18T17:53:55.982Z,8.75
2022-10-18T17:56:22.306Z,7.57
2022-10-18T17:58:51.966Z,4.57
2022-10-18T18:01:19.872Z,11.63
2022-10-18T18:03:49.804Z,9.02
2022-10-18T18:06:20.810Z,12.48
2022-10-18T18:08:47.692Z,10.38
2022-10-18T18:11:14.324Z,6.25
2022-10-18T18:13:40.687Z,7.45
2022-10-18T18:16:13.162Z,10.65
2022-10-18T18:18:39.446Z,11.10
2022-10-18T18:21:05.922Z,12.75
2022-10-18T18:23:32.239Z,14.98
2022-10-18T18:25:58.690Z,16.90
2022-10-18T18:28:25.055Z,14.70
2022-10-18T18:30:51.415Z,14.30
2022-10-18T18:33:17.731Z,10.77
2022-10-18T18:35:44.018Z,8.68
2022-10-18T18:38:10.265Z,10.80
2022-10-18T18:40:36.586Z,10.32
2022-10-18T18:43:12.506Z,16.35
2022-10-18T18:45:52.329Z,8.32
2022-10-18T18:48:19.915Z,10.55
2022-10-18T18:50:50.838Z,9.35
2022-10-18T18:53:17.209Z,9.18
2022-10-18T18:55:43.652Z,13.98
2022-10-18T18:58:10.686Z,10.50
2022-10-18T19:00:41.774Z,13.80
2022-10-18T19:03:10.916Z,9.32
2022-10-18T19:05:37.355Z,10.23
2022-10-18T19:08:04.438Z,10.65
2022-10-18T19:10:30.782Z,12.38
2022-10-18T19:12:57.582Z,9.98
2022-10-18T19:15:23.847Z,14.07
2022-10-18T19:17:50.667Z,17.20
2022-10-18T19:20:17.692Z,13.57
2022-10-18T19:22:45.266Z,14.32
2022-10-18T19:25:11.501Z,11.57
2022-10-18T19:27:39.216Z,13.25
2022-10-18T19:30:07.700Z,14.68
2022-10-18T19:32:34.026Z,15.98
2022-10-18T19:35:00.332Z,14.82
2022-10-18T19:37:26.965Z,17.13
2022-10-18T19:39:53.303Z,14.95
2022-10-18T19:42:26.069Z,12.70
2022-10-18T19:44:53.783Z,13.45
2022-10-18T19:47:20.787Z,17.08
2022-10-18T19:49:47.928Z,15.05
2022-10-18T19:52:14.259Z,12.20
2022-10-18T19:54:40.673Z,13.77
2022-10-18T19:57:06.972Z,12.60
2022-10-18T19:59:34.175Z,15.60
2022-10-18T20:02:01.611Z,9.48
2022-10-18T20:04:28.066Z,16.08
2022-10-18T20:06:54.318Z,11.98
2022-10-18T20:09:22.662Z,15.63
2022-10-18T20:11:48.904Z,12.45
2022-10-18T20:14:15.141Z,18.15
2022-10-18T20:16:41.415Z,12.35
2022-10-18T20:19:08.124Z,12.18
2022-10-18T20:21:35.600Z,12.07
2022-10-18T20:24:03.159Z,21.58
2022-10-18T20:26:29.538Z,11.63
2022-10-18T20:28:58.192Z,13.75
2022-10-18T20:31:29.204Z,19.33
2022-10-18T20:33:57.006Z,13.45
2022-10-18T20:36:23.895Z,10.48
2022-10-18T20:38:50.188Z,11.88
2022-10-18T20:41:17.947Z,14.57
2022-10-18T20:43:44.311Z,13.93
2022-10-18T20:46:10.667Z,14.32
2022-10-18T20:48:38.499Z,15.50
2022-10-18T20:51:09.118Z,15.38
2022-10-18T20:53:35.852Z,12.90
2022-10-18T20:56:03.518Z,17.23
2022-10-18T20:58:29.840Z,16.77
2022-10-18T21:00:56.103Z,15.40
2022-10-18T21:03:22.406Z,16.90
2022-10-18T21:05:48.717Z,9.85
2022-10-18T21:08:15.157Z,10.98
2022-10-18T21:10:41.406Z,10.35
2022-10-18T21:13:07.661Z,12.52
2022-10-18T21:15:34.011Z,12.65
2022-10-18T21:18:00.264Z,10.30
2022-10-18T21:20:27.246Z,12.82
2022-10-18T21:22:54.002Z,12.82
2022-10-18T21:25:20.280Z,12.73
2022-10-18T21:27:46.580Z,15.95
2022-10-18T21:32:44.364Z,14.48
2022-10-18T21:35:10.889Z,18.25
2022-10-18T21:37:37.199Z,12.30
2022-10-18T21:40:03.665Z,13.77
2022-10-18T21:42:30.238Z,24.38
2022-10-18T21:44:56.945Z,16.90
2022-10-18T21:47:23.190Z,12.55
2022-10-18T21:49:49.616Z,11.23
2022-10-18T21:52:16.615Z,13.75
2022-10-18T21:54:42.872Z,16.48
2022-10-18T21:57:09.175Z,14.98
2022-10-18T21:59:35.430Z,15.75
2022-10-18T22:02:02.946Z,10.18
2022-10-18T22:04:35.513Z,9.43
2022-10-18T22:07:03.952Z,11.77
2022-10-18T22:09:30.334Z,11.73
2022-10-18T22:11:57.024Z,17.10
2022-10-18T22:14:23.453Z,17.83
2022-10-18T22:16:50.072Z,12.32
2022-10-18T22:19:16.549Z,9.93
2022-10-18T22:21:42.795Z,13.80
2022-10-18T22:24:09.785Z,22.35
2022-10-18T22:26:37.260Z,16.38
2022-10-18T22:29:14.515Z,16.30
2022-10-18T22:31:42.838Z,11.13
2022-10-18T22:34:11.372Z,10.07
2022-10-18T22:36:37.807Z,15.00
2022-10-18T22:39:05.417Z,13.02
2022-10-18T22:41:32.012Z,14.25
2022-10-18T22:43:59.830Z,13.48
2022-10-18T22:46:29.239Z,12.82
2022-10-18T22:48:55.620Z,11.20
2022-10-18T22:51:22.035Z,13.95
2022-10-18T22:53:48.483Z,9.85
2022-10-18T22:56:19.022Z,12.45
2022-10-18T22:58:45.422Z,10.68
2022-10-18T23:01:13.136Z,13.25
2022-10-18T23:03:39.419Z,13.25
2022-10-18T23:06:06.330Z,15.10
2022-10-18T23:08:33.301Z,11.43
2022-10-18T23:10:59.928Z,14.75
2022-10-18T23:13:27.103Z,10.20
2022-10-18T23:15:53.500Z,10.55
2022-10-18T23:18:19.984Z,13.45
2022-10-18T23:20:46.223Z,9.77
2022-10-18T23:23:13.038Z,10.20
2022-10-18T23:25:39.332Z,12.35
2022-10-18T23:28:05.996Z,13.52
2022-10-18T23:30:32.341Z,11.82
2022-10-18T23:32:59.093Z,9.25
2022-10-18T23:35:25.388Z,11.23
2022-10-18T23:37:51.724Z,9.70
2022-10-18T23:40:18.049Z,9.38
2022-10-18T23:42:44.289Z,7.95
2022-10-18T23:45:10.636Z,15.50
2022-10-18T23:47:36.963Z,11.35
2022-10-18T23:50:03.362Z,12.50
2022-10-18T23:52:29.665Z,19.52
2022-10-18T23:54:55.924Z,9.40
2022-10-18T23:57:22.178Z,11.05
2022-10-18T23:59:48.508Z,17.38
